Landis, North Carolina
Current Conditions -  °F | °C
As of 11:15 PM on Friday 19 Dec 2014 (Local Time) from KRUQ Reporting Station
Clear Clear  
Wind Chill: 40°   Ceiling: Unl
Heat Index: 40°   Visibility: 10mi
Dew Point: 28°   Wind: 3mph
Humidity: 63%   Direction: 50°NE
Pressure: 30.18"   Gusts: NA
Location:  35.55°N, 80.61°W
Report Text: KRUQ 200415Z AUTO 05003KT 10SM CLR 05/M02 A3018 RMK AO2 T00461020
Loading
Personal Weather Stations






























Interactive Weather Map New forecast layout! Learn more

10-Day Weather Forecast

Advertisements
Track Severe Weather on mobile